sensor_id;sensor_type;location;lat;lon;timestamp;P1;durP1;ratioP1;P2;durP2;ratioP2
69454;SDS011;56660;51.986;5.930;2022-08-19T00:00:23;7.03;;;6.32;;
69454;SDS011;56660;51.986;5.930;2022-08-19T00:02:51;7.18;;;6.47;;
69454;SDS011;56660;51.986;5.930;2022-08-19T00:05:17;8.70;;;7.20;;
69454;SDS011;56660;51.986;5.930;2022-08-19T00:07:43;7.32;;;6.65;;
69454;SDS011;56660;51.986;5.930;2022-08-19T00:10:10;9.32;;;7.28;;
69454;SDS011;56660;51.986;5.930;2022-08-19T00:12:39;9.48;;;7.38;;
69454;SDS011;56660;51.986;5.930;2022-08-19T00:15:07;8.20;;;6.90;;
69454;SDS011;56660;51.986;5.930;2022-08-19T00:17:38;11.82;;;6.93;;
69454;SDS011;56660;51.986;5.930;2022-08-19T00:20:08;9.07;;;7.35;;
69454;SDS011;56660;51.986;5.930;2022-08-19T00:22:36;9.02;;;8.07;;
69454;SDS011;56660;51.986;5.930;2022-08-19T00:25:01;8.38;;;7.57;;
69454;SDS011;56660;51.986;5.930;2022-08-19T00:27:28;9.88;;;8.13;;
69454;SDS011;56660;51.986;5.930;2022-08-19T00:29:53;9.30;;;7.90;;
69454;SDS011;56660;51.986;5.930;2022-08-19T00:32:19;12.05;;;8.60;;
69454;SDS011;56660;51.986;5.930;2022-08-19T00:34:45;11.80;;;9.35;;
69454;SDS011;56660;51.986;5.930;2022-08-19T00:37:12;9.27;;;8.38;;
69454;SDS011;56660;51.986;5.930;2022-08-19T00:39:37;9.85;;;8.60;;
69454;SDS011;56660;51.986;5.930;2022-08-19T00:42:03;10.52;;;9.40;;
69454;SDS011;56660;51.986;5.930;2022-08-19T00:44:29;11.52;;;9.30;;
69454;SDS011;56660;51.986;5.930;2022-08-19T00:46:56;10.68;;;9.57;;
69454;SDS011;56660;51.986;5.930;2022-08-19T00:49:24;10.57;;;9.15;;
69454;SDS011;56660;51.986;5.930;2022-08-19T00:51:57;9.50;;;8.50;;
69454;SDS011;56660;51.986;5.930;2022-08-19T00:54:30;10.25;;;9.13;;
69454;SDS011;56660;51.986;5.930;2022-08-19T00:56:57;11.43;;;9.95;;
69454;SDS011;56660;51.986;5.930;2022-08-19T00:59:24;13.13;;;9.60;;
69454;SDS011;56660;51.986;5.930;2022-08-19T01:01:51;11.88;;;8.93;;
69454;SDS011;56660;51.986;5.930;2022-08-19T01:04:17;10.02;;;9.02;;
69454;SDS011;56660;51.986;5.930;2022-08-19T01:06:43;9.68;;;8.48;;
69454;SDS011;56660;51.986;5.930;2022-08-19T01:09:08;11.00;;;9.30;;
69454;SDS011;56660;51.986;5.930;2022-08-19T01:11:37;11.65;;;9.88;;
69454;SDS011;56660;51.986;5.930;2022-08-19T01:14:09;12.75;;;10.45;;
69454;SDS011;56660;51.986;5.930;2022-08-19T01:16:36;11.80;;;9.98;;
69454;SDS011;56660;51.986;5.930;2022-08-19T01:19:06;12.85;;;10.02;;
69454;SDS011;56660;51.986;5.930;2022-08-19T01:21:44;12.30;;;10.40;;
69454;SDS011;56660;51.986;5.930;2022-08-19T01:24:18;14.63;;;10.15;;
69454;SDS011;56660;51.986;5.930;2022-08-19T01:26:44;12.85;;;10.75;;
69454;SDS011;56660;51.986;5.930;2022-08-19T01:29:12;11.70;;;9.52;;
69454;SDS011;56660;51.986;5.930;2022-08-19T01:31:38;14.27;;;10.93;;
69454;SDS011;56660;51.986;5.930;2022-08-19T01:34:04;14.57;;;10.80;;
69454;SDS011;56660;51.986;5.930;2022-08-19T01:36:32;13.43;;;9.68;;
69454;SDS011;56660;51.986;5.930;2022-08-19T01:39:03;12.73;;;10.70;;
69454;SDS011;56660;51.986;5.930;2022-08-19T01:44:00;11.38;;;9.57;;
69454;SDS011;56660;51.986;5.930;2022-08-19T01:46:26;13.32;;;10.50;;
69454;SDS011;56660;51.986;5.930;2022-08-19T01:48:52;13.90;;;10.32;;
69454;SDS011;56660;51.986;5.930;2022-08-19T01:51:17;13.00;;;10.23;;
69454;SDS011;56660;51.986;5.930;2022-08-19T01:53:45;12.07;;;10.43;;
69454;SDS011;56660;51.986;5.930;2022-08-19T01:56:13;11.88;;;10.45;;
69454;SDS011;56660;51.986;5.930;2022-08-19T01:58:40;11.05;;;9.43;;
69454;SDS011;56660;51.986;5.930;2022-08-19T02:01:13;12.38;;;10.15;;
69454;SDS011;56660;51.986;5.930;2022-08-19T02:03:39;14.80;;;10.35;;
69454;SDS011;56660;51.986;5.930;2022-08-19T02:06:05;12.45;;;9.93;;
69454;SDS011;56660;51.986;5.930;2022-08-19T02:08:31;12.07;;;10.32;;
69454;SDS011;56660;51.986;5.930;2022-08-19T02:11:03;12.95;;;10.10;;
69454;SDS011;56660;51.986;5.930;2022-08-19T02:13:31;14.07;;;10.35;;
69454;SDS011;56660;51.986;5.930;2022-08-19T02:16:00;18.38;;;10.73;;
69454;SDS011;56660;51.986;5.930;2022-08-19T02:18:26;11.15;;;9.52;;
69454;SDS011;56660;51.986;5.930;2022-08-19T02:20:51;12.05;;;10.68;;
69454;SDS011;56660;51.986;5.930;2022-08-19T02:23:17;11.57;;;10.18;;
69454;SDS011;56660;51.986;5.930;2022-08-19T02:25:43;11.50;;;9.93;;
69454;SDS011;56660;51.986;5.930;2022-08-19T02:28:11;13.82;;;10.52;;
69454;SDS011;56660;51.986;5.930;2022-08-19T02:30:37;13.10;;;10.43;;
69454;SDS011;56660;51.986;5.930;2022-08-19T02:33:06;12.23;;;10.18;;
69454;SDS011;56660;51.986;5.930;2022-08-19T02:35:32;12.13;;;10.25;;
69454;SDS011;56660;51.986;5.930;2022-08-19T02:37:58;14.10;;;10.60;;
69454;SDS011;56660;51.986;5.930;2022-08-19T02:40:27;12.48;;;10.73;;
69454;SDS011;56660;51.986;5.930;2022-08-19T02:42:54;12.20;;;10.27;;
69454;SDS011;56660;51.986;5.930;2022-08-19T02:45:20;12.73;;;10.15;;
69454;SDS011;56660;51.986;5.930;2022-08-19T02:47:51;15.07;;;10.75;;
69454;SDS011;56660;51.986;5.930;2022-08-19T02:50:20;14.93;;;10.32;;
69454;SDS011;56660;51.986;5.930;2022-08-19T02:52:46;11.82;;;10.45;;
69454;SDS011;56660;51.986;5.930;2022-08-19T02:55:12;13.95;;;10.95;;
69454;SDS011;56660;51.986;5.930;2022-08-19T02:57:37;16.58;;;12.57;;
69454;SDS011;56660;51.986;5.930;2022-08-19T03:00:04;12.65;;;11.23;;
69454;SDS011;56660;51.986;5.930;2022-08-19T03:02:31;14.55;;;11.45;;
69454;SDS011;56660;51.986;5.930;2022-08-19T03:04:57;12.38;;;10.60;;
69454;SDS011;56660;51.986;5.930;2022-08-19T03:07:24;14.25;;;10.82;;
69454;SDS011;56660;51.986;5.930;2022-08-19T03:09:49;12.82;;;10.77;;
69454;SDS011;56660;51.986;5.930;2022-08-19T03:12:15;14.50;;;11.02;;
69454;SDS011;56660;51.986;5.930;2022-08-19T03:14:40;11.88;;;10.27;;
69454;SDS011;56660;51.986;5.930;2022-08-19T03:17:06;13.32;;;10.63;;
69454;SDS011;56660;51.986;5.930;2022-08-19T03:19:32;12.02;;;10.05;;
69454;SDS011;56660;51.986;5.930;2022-08-19T03:21:57;12.27;;;10.25;;
69454;SDS011;56660;51.986;5.930;2022-08-19T03:24:24;12.18;;;10.05;;
69454;SDS011;56660;51.986;5.930;2022-08-19T03:26:51;12.63;;;10.60;;
69454;SDS011;56660;51.986;5.930;2022-08-19T03:29:19;12.43;;;10.18;;
69454;SDS011;56660;51.986;5.930;2022-08-19T03:31:49;13.23;;;10.10;;
69454;SDS011;56660;51.986;5.930;2022-08-19T03:34:17;12.45;;;10.10;;
69454;SDS011;56660;51.986;5.930;2022-08-19T03:36:47;13.65;;;10.85;;
69454;SDS011;56660;51.986;5.930;2022-08-19T03:39:13;14.70;;;10.90;;
69454;SDS011;56660;51.986;5.930;2022-08-19T03:41:42;15.20;;;11.43;;
69454;SDS011;56660;51.986;5.930;2022-08-19T03:44:11;14.07;;;11.55;;
69454;SDS011;56660;51.986;5.930;2022-08-19T03:46:37;14.88;;;11.32;;
69454;SDS011;56660;51.986;5.930;2022-08-19T03:49:03;12.25;;;10.63;;
69454;SDS011;56660;51.986;5.930;2022-08-19T03:51:30;14.63;;;10.77;;
69454;SDS011;56660;51.986;5.930;2022-08-19T03:53:59;14.40;;;10.30;;
69454;SDS011;56660;51.986;5.930;2022-08-19T03:56:28;12.23;;;10.40;;
69454;SDS011;56660;51.986;5.930;2022-08-19T03:58:56;12.73;;;10.38;;
69454;SDS011;56660;51.986;5.930;2022-08-19T04:01:24;13.60;;;10.90;;
69454;SDS011;56660;51.986;5.930;2022-08-19T04:03:53;14.00;;;11.02;;
69454;SDS011;56660;51.986;5.930;2022-08-19T04:06:21;12.07;;;10.23;;
69454;SDS011;56660;51.986;5.930;2022-08-19T04:08:51;15.55;;;10.43;;
69454;SDS011;56660;51.986;5.930;2022-08-19T04:11:24;14.38;;;10.90;;
69454;SDS011;56660;51.986;5.930;2022-08-19T04:13:53;12.50;;;10.48;;
69454;SDS011;56660;51.986;5.930;2022-08-19T04:16:22;14.10;;;11.10;;
69454;SDS011;56660;51.986;5.930;2022-08-19T04:18:50;13.68;;;10.13;;
69454;SDS011;56660;51.986;5.930;2022-08-19T04:21:16;14.05;;;11.73;;
69454;SDS011;56660;51.986;5.930;2022-08-19T04:23:46;14.30;;;11.10;;
69454;SDS011;56660;51.986;5.930;2022-08-19T04:26:13;15.57;;;11.77;;
69454;SDS011;56660;51.986;5.930;2022-08-19T04:28:39;16.35;;;11.68;;
69454;SDS011;56660;51.986;5.930;2022-08-19T04:31:06;15.25;;;11.95;;
69454;SDS011;56660;51.986;5.930;2022-08-19T04:33:40;16.88;;;11.10;;
69454;SDS011;56660;51.986;5.930;2022-08-19T04:36:06;14.07;;;10.30;;
69454;SDS011;56660;51.986;5.930;2022-08-19T04:38:33;14.07;;;10.48;;
69454;SDS011;56660;51.986;5.930;2022-08-19T04:40:59;14.82;;;10.30;;
69454;SDS011;56660;51.986;5.930;2022-08-19T04:43:24;14.65;;;11.00;;
69454;SDS011;56660;51.986;5.930;2022-08-19T04:45:50;13.90;;;10.88;;
69454;SDS011;56660;51.986;5.930;2022-08-19T04:48:18;13.65;;;10.85;;
69454;SDS011;56660;51.986;5.930;2022-08-19T04:50:44;12.32;;;9.32;;
69454;SDS011;56660;51.986;5.930;2022-08-19T04:53:10;12.02;;;10.43;;
69454;SDS011;56660;51.986;5.930;2022-08-19T04:55:38;13.60;;;10.50;;
69454;SDS011;56660;51.986;5.930;2022-08-19T04:58:05;16.38;;;10.35;;
69454;SDS011;56660;51.986;5.930;2022-08-19T05:00:32;14.55;;;10.50;;
69454;SDS011;56660;51.986;5.930;2022-08-19T05:02:58;15.50;;;10.85;;
69454;SDS011;56660;51.986;5.930;2022-08-19T05:05:25;14.65;;;11.02;;
69454;SDS011;56660;51.986;5.930;2022-08-19T05:07:50;12.70;;;10.23;;
69454;SDS011;56660;51.986;5.930;2022-08-19T05:10:16;12.27;;;10.02;;
69454;SDS011;56660;51.986;5.930;2022-08-19T05:12:42;14.57;;;10.57;;
69454;SDS011;56660;51.986;5.930;2022-08-19T05:15:08;14.00;;;10.43;;
69454;SDS011;56660;51.986;5.930;2022-08-19T05:17:34;13.65;;;10.30;;
69454;SDS011;56660;51.986;5.930;2022-08-19T05:20:00;11.45;;;10.10;;
69454;SDS011;56660;51.986;5.930;2022-08-19T05:22:27;11.85;;;10.05;;
69454;SDS011;56660;51.986;5.930;2022-08-19T05:24:52;14.00;;;10.75;;
69454;SDS011;56660;51.986;5.930;2022-08-19T05:27:18;12.65;;;11.07;;
69454;SDS011;56660;51.986;5.930;2022-08-19T05:29:43;13.80;;;11.80;;
69454;SDS011;56660;51.986;5.930;2022-08-19T05:32:09;14.32;;;11.95;;
69454;SDS011;56660;51.986;5.930;2022-08-19T05:34:35;14.13;;;10.93;;
69454;SDS011;56660;51.986;5.930;2022-08-19T05:37:02;13.23;;;10.68;;
69454;SDS011;56660;51.986;5.930;2022-08-19T05:39:30;14.32;;;11.05;;
69454;SDS011;56660;51.986;5.930;2022-08-19T05:42:00;13.30;;;10.77;;
69454;SDS011;56660;51.986;5.930;2022-08-19T05:44:30;12.55;;;10.57;;
69454;SDS011;56660;51.986;5.930;2022-08-19T05:46:57;18.30;;;11.98;;
69454;SDS011;56660;51.986;5.930;2022-08-19T05:49:24;15.70;;;12.40;;
69454;SDS011;56660;51.986;5.930;2022-08-19T05:51:50;16.33;;;11.98;;
69454;SDS011;56660;51.986;5.930;2022-08-19T05:54:16;16.83;;;12.80;;
69454;SDS011;56660;51.986;5.930;2022-08-19T05:56:44;15.35;;;12.15;;
69454;SDS011;56660;51.986;5.930;2022-08-19T05:59:11;16.95;;;13.27;;
69454;SDS011;56660;51.986;5.930;2022-08-19T06:01:37;18.80;;;15.18;;
69454;SDS011;56660;51.986;5.930;2022-08-19T06:04:05;22.90;;;16.67;;
69454;SDS011;56660;51.986;5.930;2022-08-19T06:06:30;18.90;;;16.40;;
69454;SDS011;56660;51.986;5.930;2022-08-19T06:09:00;23.17;;;16.85;;
69454;SDS011;56660;51.986;5.930;2022-08-19T06:11:31;23.95;;;18.35;;
69454;SDS011;56660;51.986;5.930;2022-08-19T06:14:03;22.92;;;17.92;;
69454;SDS011;56660;51.986;5.930;2022-08-19T06:16:31;24.27;;;18.58;;
69454;SDS011;56660;51.986;5.930;2022-08-19T06:18:59;22.58;;;17.60;;
69454;SDS011;56660;51.986;5.930;2022-08-19T06:21:27;24.33;;;17.73;;
69454;SDS011;56660;51.986;5.930;2022-08-19T06:23:54;23.63;;;17.88;;
69454;SDS011;56660;51.986;5.930;2022-08-19T06:26:21;25.70;;;19.20;;
69454;SDS011;56660;51.986;5.930;2022-08-19T06:28:48;22.10;;;17.60;;
69454;SDS011;56660;51.986;5.930;2022-08-19T06:31:15;26.50;;;19.42;;
69454;SDS011;56660;51.986;5.930;2022-08-19T06:33:46;24.92;;;18.55;;
69454;SDS011;56660;51.986;5.930;2022-08-19T06:36:17;25.48;;;18.67;;
69454;SDS011;56660;51.986;5.930;2022-08-19T06:38:48;24.92;;;18.98;;
69454;SDS011;56660;51.986;5.930;2022-08-19T06:41:14;28.23;;;20.67;;
69454;SDS011;56660;51.986;5.930;2022-08-19T06:43:40;26.30;;;19.45;;
69454;SDS011;56660;51.986;5.930;2022-08-19T06:46:09;24.00;;;18.52;;
69454;SDS011;56660;51.986;5.930;2022-08-19T06:48:38;27.80;;;19.95;;
69454;SDS011;56660;51.986;5.930;2022-08-19T06:51:04;33.05;;;21.58;;
69454;SDS011;56660;51.986;5.930;2022-08-19T06:53:30;38.95;;;25.08;;
69454;SDS011;56660;51.986;5.930;2022-08-19T06:55:56;37.83;;;24.85;;
69454;SDS011;56660;51.986;5.930;2022-08-19T06:58:24;42.30;;;24.88;;
69454;SDS011;56660;51.986;5.930;2022-08-19T07:07:36;51.35;;;30.25;;
69454;SDS011;56660;51.986;5.930;2022-08-19T07:10:02;57.33;;;32.65;;
69454;SDS011;56660;51.986;5.930;2022-08-19T07:12:30;60.28;;;33.85;;
69454;SDS011;56660;51.986;5.930;2022-08-19T07:14:57;59.38;;;33.10;;
69454;SDS011;56660;51.986;5.930;2022-08-19T07:17:23;62.53;;;34.53;;
69454;SDS011;56660;51.986;5.930;2022-08-19T07:19:49;67.55;;;35.33;;
69454;SDS011;56660;51.986;5.930;2022-08-19T07:22:18;69.50;;;35.33;;
69454;SDS011;56660;51.986;5.930;2022-08-19T07:24:45;69.00;;;35.90;;
69454;SDS011;56660;51.986;5.930;2022-08-19T07:27:10;72.28;;;34.70;;
69454;SDS011;56660;51.986;5.930;2022-08-19T07:29:39;65.95;;;36.47;;
69454;SDS011;56660;51.986;5.930;2022-08-19T07:32:05;66.65;;;37.25;;
69454;SDS011;56660;51.986;5.930;2022-08-19T07:34:33;68.68;;;37.05;;
69454;SDS011;56660;51.986;5.930;2022-08-19T07:36:59;67.47;;;36.97;;
69454;SDS011;56660;51.986;5.930;2022-08-19T07:39:25;66.05;;;36.95;;
69454;SDS011;56660;51.986;5.930;2022-08-19T07:41:58;65.97;;;37.13;;
69454;SDS011;56660;51.986;5.930;2022-08-19T07:44:26;68.95;;;37.75;;
69454;SDS011;56660;51.986;5.930;2022-08-19T07:46:52;62.35;;;36.50;;
69454;SDS011;56660;51.986;5.930;2022-08-19T07:49:21;64.22;;;36.53;;
69454;SDS011;56660;51.986;5.930;2022-08-19T07:51:49;67.68;;;38.90;;
69454;SDS011;56660;51.986;5.930;2022-08-19T07:54:19;65.93;;;38.25;;
69454;SDS011;56660;51.986;5.930;2022-08-19T07:56:46;67.85;;;39.90;;
69454;SDS011;56660;51.986;5.930;2022-08-19T07:59:13;65.47;;;38.38;;
69454;SDS011;56660;51.986;5.930;2022-08-19T08:01:39;69.30;;;40.38;;
69454;SDS011;56660;51.986;5.930;2022-08-19T08:05:00;68.82;;;39.88;;
69454;SDS011;56660;51.986;5.930;2022-08-19T08:07:25;71.88;;;42.25;;
69454;SDS011;56660;51.986;5.930;2022-08-19T08:09:51;65.53;;;39.63;;
69454;SDS011;56660;51.986;5.930;2022-08-19T08:12:19;69.20;;;41.45;;
69454;SDS011;56660;51.986;5.930;2022-08-19T08:14:53;71.28;;;41.80;;
69454;SDS011;56660;51.986;5.930;2022-08-19T08:17:22;68.90;;;39.80;;
69454;SDS011;56660;51.986;5.930;2022-08-19T08:19:51;67.00;;;40.20;;
69454;SDS011;56660;51.986;5.930;2022-08-19T08:22:19;68.40;;;40.22;;
69454;SDS011;56660;51.986;5.930;2022-08-19T08:24:48;62.63;;;40.73;;
69454;SDS011;56660;51.986;5.930;2022-08-19T08:27:19;62.35;;;39.67;;
69454;SDS011;56660;51.986;5.930;2022-08-19T08:30:35;61.20;;;40.50;;
69454;SDS011;56660;51.986;5.930;2022-08-19T08:36:31;63.75;;;40.92;;
69454;SDS011;56660;51.986;5.930;2022-08-19T08:38:58;61.95;;;41.47;;
69454;SDS011;56660;51.986;5.930;2022-08-19T08:44:47;47.47;;;33.03;;
69454;SDS011;56660;51.986;5.930;2022-08-19T08:47:37;48.60;;;31.40;;
69454;SDS011;56660;51.986;5.930;2022-08-19T08:50:07;49.28;;;32.78;;
69454;SDS011;56660;51.986;5.930;2022-08-19T08:52:43;43.42;;;29.77;;
69454;SDS011;56660;51.986;5.930;2022-08-19T08:55:15;46.33;;;32.40;;
69454;SDS011;56660;51.986;5.930;2022-08-19T08:57:47;46.53;;;31.50;;
69454;SDS011;56660;51.986;5.930;2022-08-19T09:00:21;40.28;;;28.77;;
69454;SDS011;56660;51.986;5.930;2022-08-19T09:05:16;52.97;;;32.28;;
69454;SDS011;56660;51.986;5.930;2022-08-19T09:07:44;45.22;;;29.60;;
69454;SDS011;56660;51.986;5.930;2022-08-19T09:10:20;40.83;;;28.65;;
69454;SDS011;56660;51.986;5.930;2022-08-19T09:12:56;40.42;;;28.33;;
69454;SDS011;56660;51.986;5.930;2022-08-19T09:15:38;41.95;;;28.67;;
69454;SDS011;56660;51.986;5.930;2022-08-19T09:18:10;43.05;;;27.85;;
69454;SDS011;56660;51.986;5.930;2022-08-19T09:20:36;36.05;;;25.80;;
69454;SDS011;56660;51.986;5.930;2022-08-19T09:23:02;42.58;;;26.33;;
69454;SDS011;56660;51.986;5.930;2022-08-19T09:25:29;40.83;;;26.27;;
69454;SDS011;56660;51.986;5.930;2022-08-19T09:27:55;38.63;;;25.25;;
69454;SDS011;56660;51.986;5.930;2022-08-19T09:30:22;39.70;;;26.98;;
69454;SDS011;56660;51.986;5.930;2022-08-19T09:32:52;40.20;;;27.05;;
69454;SDS011;56660;51.986;5.930;2022-08-19T09:35:19;39.22;;;26.38;;
69454;SDS011;56660;51.986;5.930;2022-08-19T09:37:47;38.30;;;25.80;;
69454;SDS011;56660;51.986;5.930;2022-08-19T09:40:13;37.63;;;23.77;;
69454;SDS011;56660;51.986;5.930;2022-08-19T09:42:40;41.25;;;25.42;;
69454;SDS011;56660;51.986;5.930;2022-08-19T09:45:06;38.72;;;24.85;;
69454;SDS011;56660;51.986;5.930;2022-08-19T09:47:33;40.83;;;25.63;;
69454;SDS011;56660;51.986;5.930;2022-08-19T09:49:58;44.05;;;24.67;;
69454;SDS011;56660;51.986;5.930;2022-08-19T09:52:24;33.05;;;24.35;;
69454;SDS011;56660;51.986;5.930;2022-08-19T09:54:51;35.30;;;23.55;;
69454;SDS011;56660;51.986;5.930;2022-08-19T09:57:19;32.15;;;23.70;;
69454;SDS011;56660;51.986;5.930;2022-08-19T10:02:24;34.67;;;22.80;;
69454;SDS011;56660;51.986;5.930;2022-08-19T10:04:50;32.47;;;20.70;;
69454;SDS011;56660;51.986;5.930;2022-08-19T10:07:16;33.25;;;22.08;;
69454;SDS011;56660;51.986;5.930;2022-08-19T10:09:41;29.45;;;20.45;;
69454;SDS011;56660;51.986;5.930;2022-08-19T10:12:07;25.00;;;18.52;;
69454;SDS011;56660;51.986;5.930;2022-08-19T10:14:34;27.48;;;17.98;;
69454;SDS011;56660;51.986;5.930;2022-08-19T10:17:02;32.92;;;20.30;;
69454;SDS011;56660;51.986;5.930;2022-08-19T10:19:28;28.00;;;20.48;;
69454;SDS011;56660;51.986;5.930;2022-08-19T10:21:53;27.67;;;19.40;;
69454;SDS011;56660;51.986;5.930;2022-08-19T10:24:19;29.02;;;18.52;;
69454;SDS011;56660;51.986;5.930;2022-08-19T10:26:45;29.25;;;18.33;;
69454;SDS011;56660;51.986;5.930;2022-08-19T10:29:10;26.73;;;19.10;;
69454;SDS011;56660;51.986;5.930;2022-08-19T10:31:36;29.92;;;18.70;;
69454;SDS011;56660;51.986;5.930;2022-08-19T10:34:03;34.17;;;18.20;;
69454;SDS011;56660;51.986;5.930;2022-08-19T10:36:29;32.60;;;21.27;;
69454;SDS011;56660;51.986;5.930;2022-08-19T10:38:59;31.77;;;19.90;;
69454;SDS011;56660;51.986;5.930;2022-08-19T10:41:30;33.15;;;21.05;;
69454;SDS011;56660;51.986;5.930;2022-08-19T10:43:59;32.45;;;19.98;;
69454;SDS011;56660;51.986;5.930;2022-08-19T10:46:28;30.55;;;20.30;;
69454;SDS011;56660;51.986;5.930;2022-08-19T10:48:54;30.58;;;20.50;;
69454;SDS011;56660;51.986;5.930;2022-08-19T10:51:21;28.50;;;18.88;;
69454;SDS011;56660;51.986;5.930;2022-08-19T10:53:47;31.00;;;19.40;;
69454;SDS011;56660;51.986;5.930;2022-08-19T10:56:13;29.75;;;18.95;;
69454;SDS011;56660;51.986;5.930;2022-08-19T10:58:39;30.58;;;20.33;;
69454;SDS011;56660;51.986;5.930;2022-08-19T11:01:04;28.60;;;18.40;;
69454;SDS011;56660;51.986;5.930;2022-08-19T11:03:30;26.05;;;18.95;;
69454;SDS011;56660;51.986;5.930;2022-08-19T11:05:59;26.25;;;18.50;;
69454;SDS011;56660;51.986;5.930;2022-08-19T11:08:27;26.98;;;19.40;;
69454;SDS011;56660;51.986;5.930;2022-08-19T11:10:53;31.77;;;20.55;;
69454;SDS011;56660;51.986;5.930;2022-08-19T11:13:19;28.20;;;19.48;;
69454;SDS011;56660;51.986;5.930;2022-08-19T11:15:46;30.27;;;19.40;;
69454;SDS011;56660;51.986;5.930;2022-08-19T11:18:11;27.08;;;18.23;;
69454;SDS011;56660;51.986;5.930;2022-08-19T11:20:38;28.45;;;19.35;;
69454;SDS011;56660;51.986;5.930;2022-08-19T11:23:03;25.75;;;16.80;;
69454;SDS011;56660;51.986;5.930;2022-08-19T11:25:30;29.23;;;17.92;;
69454;SDS011;56660;51.986;5.930;2022-08-19T11:27:55;27.02;;;18.13;;
69454;SDS011;56660;51.986;5.930;2022-08-19T11:30:21;28.25;;;16.92;;
69454;SDS011;56660;51.986;5.930;2022-08-19T11:32:46;26.30;;;17.35;;
69454;SDS011;56660;51.986;5.930;2022-08-19T11:35:12;25.08;;;18.15;;
69454;SDS011;56660;51.986;5.930;2022-08-19T11:37:39;23.17;;;15.80;;
69454;SDS011;56660;51.986;5.930;2022-08-19T11:40:05;24.92;;;16.80;;
69454;SDS011;56660;51.986;5.930;2022-08-19T11:42:33;23.80;;;16.25;;
69454;SDS011;56660;51.986;5.930;2022-08-19T11:44:59;20.70;;;14.32;;
69454;SDS011;56660;51.986;5.930;2022-08-19T11:47:25;22.73;;;15.93;;
69454;SDS011;56660;51.986;5.930;2022-08-19T11:49:50;17.10;;;13.10;;
69454;SDS011;56660;51.986;5.930;2022-08-19T11:52:16;20.13;;;14.57;;
69454;SDS011;56660;51.986;5.930;2022-08-19T11:54:42;18.40;;;13.32;;
69454;SDS011;56660;51.986;5.930;2022-08-19T11:57:07;18.42;;;13.13;;
69454;SDS011;56660;51.986;5.930;2022-08-19T11:59:34;20.48;;;14.75;;
69454;SDS011;56660;51.986;5.930;2022-08-19T12:02:00;17.33;;;13.65;;
69454;SDS011;56660;51.986;5.930;2022-08-19T12:04:25;19.70;;;14.35;;
69454;SDS011;56660;51.986;5.930;2022-08-19T12:06:52;18.40;;;14.20;;
69454;SDS011;56660;51.986;5.930;2022-08-19T12:09:18;19.10;;;14.25;;
69454;SDS011;56660;51.986;5.930;2022-08-19T12:11:43;17.55;;;12.77;;
69454;SDS011;56660;51.986;5.930;2022-08-19T12:14:10;15.40;;;12.10;;
69454;SDS011;56660;51.986;5.930;2022-08-19T12:16:43;17.27;;;13.00;;
69454;SDS011;56660;51.986;5.930;2022-08-19T12:19:10;20.05;;;15.00;;
69454;SDS011;56660;51.986;5.930;2022-08-19T12:21:36;16.20;;;11.77;;
69454;SDS011;56660;51.986;5.930;2022-08-19T12:24:02;17.48;;;12.48;;
69454;SDS011;56660;51.986;5.930;2022-08-19T12:26:30;16.60;;;13.18;;
69454;SDS011;56660;51.986;5.930;2022-08-19T12:28:56;19.77;;;14.75;;
69454;SDS011;56660;51.986;5.930;2022-08-19T12:31:22;16.60;;;13.63;;
69454;SDS011;56660;51.986;5.930;2022-08-19T12:33:49;16.92;;;13.80;;
69454;SDS011;56660;51.986;5.930;2022-08-19T12:36:15;18.08;;;12.63;;
69454;SDS011;56660;51.986;5.930;2022-08-19T12:38:41;19.70;;;17.23;;
69454;SDS011;56660;51.986;5.930;2022-08-19T12:41:09;19.05;;;15.07;;
69454;SDS011;56660;51.986;5.930;2022-08-19T12:43:37;18.10;;;14.52;;
69454;SDS011;56660;51.986;5.930;2022-08-19T12:46:03;18.45;;;12.65;;
69454;SDS011;56660;51.986;5.930;2022-08-19T12:48:29;14.40;;;12.55;;
69454;SDS011;56660;51.986;5.930;2022-08-19T12:50:57;16.23;;;13.05;;
69454;SDS011;56660;51.986;5.930;2022-08-19T12:53:22;17.35;;;14.20;;
69454;SDS011;56660;51.986;5.930;2022-08-19T12:55:53;16.40;;;14.32;;
69454;SDS011;56660;51.986;5.930;2022-08-19T12:58:20;18.85;;;12.82;;
69454;SDS011;56660;51.986;5.930;2022-08-19T13:00:46;16.33;;;14.15;;
69454;SDS011;56660;51.986;5.930;2022-08-19T13:03:11;16.92;;;13.75;;
69454;SDS011;56660;51.986;5.930;2022-08-19T13:05:37;19.92;;;14.82;;
69454;SDS011;56660;51.986;5.930;2022-08-19T13:08:04;20.80;;;14.00;;
69454;SDS011;56660;51.986;5.930;2022-08-19T13:10:31;18.45;;;14.85;;
69454;SDS011;56660;51.986;5.930;2022-08-19T13:13:00;19.92;;;17.38;;
69454;SDS011;56660;51.986;5.930;2022-08-19T13:15:29;19.30;;;15.65;;
69454;SDS011;56660;51.986;5.930;2022-08-19T13:17:59;17.13;;;14.75;;
69454;SDS011;56660;51.986;5.930;2022-08-19T13:20:25;16.88;;;14.25;;
69454;SDS011;56660;51.986;5.930;2022-08-19T13:22:52;20.45;;;14.80;;
69454;SDS011;56660;51.986;5.930;2022-08-19T13:25:20;16.30;;;13.32;;
69454;SDS011;56660;51.986;5.930;2022-08-19T13:27:46;17.98;;;15.95;;
69454;SDS011;56660;51.986;5.930;2022-08-19T13:30:14;19.77;;;15.38;;
69454;SDS011;56660;51.986;5.930;2022-08-19T13:32:42;20.88;;;15.05;;
69454;SDS011;56660;51.986;5.930;2022-08-19T13:35:07;17.73;;;14.85;;
69454;SDS011;56660;51.986;5.930;2022-08-19T13:37:33;19.48;;;15.38;;
69454;SDS011;56660;51.986;5.930;2022-08-19T13:39:59;19.33;;;16.48;;
69454;SDS011;56660;51.986;5.930;2022-08-19T13:42:26;15.32;;;13.73;;
69454;SDS011;56660;51.986;5.930;2022-08-19T13:44:53;15.40;;;11.48;;
69454;SDS011;56660;51.986;5.930;2022-08-19T13:47:19;16.00;;;13.43;;
69454;SDS011;56660;51.986;5.930;2022-08-19T13:49:44;18.10;;;12.90;;
69454;SDS011;56660;51.986;5.930;2022-08-19T13:52:10;13.15;;;11.75;;
69454;SDS011;56660;51.986;5.930;2022-08-19T13:54:35;14.27;;;11.82;;
69454;SDS011;56660;51.986;5.930;2022-08-19T13:57:01;13.77;;;11.40;;
69454;SDS011;56660;51.986;5.930;2022-08-19T13:59:29;11.65;;;10.45;;
69454;SDS011;56660;51.986;5.930;2022-08-19T14:01:57;14.95;;;10.65;;
69454;SDS011;56660;51.986;5.930;2022-08-19T14:04:23;13.43;;;11.98;;
69454;SDS011;56660;51.986;5.930;2022-08-19T14:06:48;14.13;;;11.70;;
69454;SDS011;56660;51.986;5.930;2022-08-19T14:09:14;14.02;;;12.27;;
69454;SDS011;56660;51.986;5.930;2022-08-19T14:11:39;11.80;;;9.90;;
69454;SDS011;56660;51.986;5.930;2022-08-19T14:14:05;13.85;;;11.68;;
69454;SDS011;56660;51.986;5.930;2022-08-19T14:16:32;11.00;;;9.88;;
69454;SDS011;56660;51.986;5.930;2022-08-19T14:18:57;14.93;;;12.82;;
69454;SDS011;56660;51.986;5.930;2022-08-19T14:21:26;16.52;;;14.02;;
69454;SDS011;56660;51.986;5.930;2022-08-19T14:23:52;18.67;;;15.38;;
69454;SDS011;56660;51.986;5.930;2022-08-19T14:26:18;18.98;;;15.63;;
69454;SDS011;56660;51.986;5.930;2022-08-19T14:28:46;18.65;;;15.70;;
69454;SDS011;56660;51.986;5.930;2022-08-19T14:31:12;17.20;;;13.38;;
69454;SDS011;56660;51.986;5.930;2022-08-19T14:33:42;15.90;;;13.70;;
69454;SDS011;56660;51.986;5.930;2022-08-19T14:36:07;19.90;;;16.10;;
69454;SDS011;56660;51.986;5.930;2022-08-19T14:38:33;17.02;;;14.10;;
69454;SDS011;56660;51.986;5.930;2022-08-19T14:41:06;21.02;;;14.93;;
69454;SDS011;56660;51.986;5.930;2022-08-19T14:43:35;18.23;;;15.02;;
69454;SDS011;56660;51.986;5.930;2022-08-19T14:46:01;19.15;;;16.30;;